createdAt,value
2018-09-01T00:00:03.407Z,99655.05
2018-09-01T00:00:34.585Z,99661.51
2018-09-01T00:01:05.769Z,99654.72
2018-09-01T00:01:36.969Z,99664.55
2018-09-01T00:02:08.148Z,99657.37
2018-09-01T00:02:39.267Z,99662.66
2018-09-01T00:03:10.472Z,99662.66
2018-09-01T00:03:41.588Z,99662.66
2018-09-01T00:04:12.759Z,99663.02
2018-09-01T00:04:43.927Z,99660.29
2018-09-01T00:05:15.044Z,99661.51
2018-09-01T00:05:46.162Z,99660.56
2018-09-01T00:06:17.275Z,99664.16
2018-09-01T00:06:48.452Z,99665.10
2018-09-01T00:07:19.596Z,99661.12
2018-09-01T00:07:50.772Z,99661.69
2018-09-01T00:08:21.945Z,99666.16
2018-09-01T00:08:53.112Z,99668.42
2018-09-01T00:09:24.232Z,99664.06
2018-09-01T00:09:55.449Z,99658.49
2018-09-01T00:10:26.637Z,99661.62
2018-09-01T00:10:57.782Z,99660.03
2018-09-01T00:11:28.887Z,99664.11
2018-09-01T00:12:00.118Z,99660.97
2018-09-01T00:12:31.244Z,99664.00
2018-09-01T00:13:02.367Z,99659.81
2018-09-01T00:13:33.576Z,99661.14
2018-09-01T00:14:04.712Z,99663.41
2018-09-01T00:14:35.890Z,99662.47
2018-09-01T00:15:07.028Z,99656.06
2018-09-01T00:15:38.264Z,99660.03
2018-09-01T00:16:09.384Z,99663.13
2018-09-01T00:16:40.602Z,99661.36
2018-09-01T00:17:11.719Z,99661.36
2018-09-01T00:17:42.918Z,99663.79
2018-09-01T00:18:14.089Z,99666.26
2018-09-01T00:18:45.265Z,99667.37
2018-09-01T00:19:16.368Z,99662.08
2018-09-01T00:19:47.479Z,99669.18
2018-09-01T00:20:18.616Z,99673.72
2018-09-01T00:20:49.734Z,99661.14
2018-09-01T00:21:20.965Z,99662.09
2018-09-01T00:21:52.141Z,99664.45
2018-09-01T00:22:23.263Z,99659.64
2018-09-01T00:22:54.396Z,99661.91
2018-09-01T00:23:25.512Z,99661.08
2018-09-01T00:23:56.777Z,99661.80
2018-09-01T00:24:27.900Z,99664.38
2018-09-01T00:24:59.072Z,99663.41
2018-09-01T00:25:30.243Z,99660.20
2018-09-01T00:26:01.373Z,99658.31
2018-09-01T00:26:32.488Z,99664.44
2018-09-01T00:27:03.609Z,99662.66
2018-09-01T00:27:34.737Z,99664.83
2018-09-01T00:28:05.979Z,99667.96
2018-09-01T00:28:37.115Z,99662.36
2018-09-01T00:29:08.260Z,99668.63
2018-09-01T00:29:39.421Z,99666.05
2018-09-01T00:30:10.667Z,99666.44
2018-09-01T00:30:41.832Z,99661.52
2018-09-01T00:31:13.022Z,99661.03
2018-09-01T00:31:44.141Z,99660.20
2018-09-01T00:32:15.251Z,99659.25
2018-09-01T00:32:46.412Z,99664.06
2018-09-01T00:33:17.571Z,99660.96
2018-09-01T00:33:48.739Z,99653.58
2018-09-01T00:34:19.868Z,99659.81
2018-09-01T00:34:50.977Z,99664.94
2018-09-01T00:35:22.141Z,99662.30
2018-09-01T00:35:53.324Z,99662.30
2018-09-01T00:36:24.439Z,99658.81
2018-09-01T00:36:55.600Z,99662.30
2018-09-01T00:37:26.851Z,99666.65
2018-09-01T00:37:57.961Z,99661.73
2018-09-01T00:38:29.117Z,99661.25
2018-09-01T00:39:00.291Z,99660.20
2018-09-01T00:39:31.460Z,99657.44
2018-09-01T00:40:02.627Z,99665.66
2018-09-01T00:40:33.760Z,99662.45
2018-09-01T00:41:04.941Z,99661.51
2018-09-01T00:41:36.048Z,99636.38
2018-09-01T00:42:07.235Z,99664.05
2018-09-01T00:42:38.457Z,99665.86
2018-09-01T00:43:09.620Z,99659.24
2018-09-01T00:43:40.730Z,99663.94
2018-09-01T00:44:11.855Z,99661.67
2018-09-01T00:44:42.983Z,99661.22
2018-09-01T00:45:14.103Z,99661.11
2018-09-01T00:45:45.272Z,99663.27
2018-09-01T00:46:16.457Z,99665.92
2018-09-01T00:46:47.630Z,99666.03
2018-09-01T00:47:18.752Z,99665.65
2018-09-01T00:47:49.864Z,99663.00
2018-09-01T00:48:21.028Z,99666.59
2018-09-01T00:48:52.140Z,99666.52
2018-09-01T00:49:23.260Z,99670.11
2018-09-01T00:49:54.369Z,99670.39
2018-09-01T00:50:25.548Z,99667.73
2018-09-01T00:50:56.671Z,99671.60
2018-09-01T00:51:27.845Z,99671.49
2018-09-01T00:51:58.998Z,99669.79
2018-09-01T00:52:30.228Z,99671.11
2018-09-01T00:53:01.409Z,99670.17
2018-09-01T00:53:32.571Z,99666.80
2018-09-01T00:54:03.745Z,99669.90
2018-09-01T00:54:34.989Z,99675.03
2018-09-01T00:55:06.116Z,99672.66
2018-09-01T00:55:37.289Z,99673.61
2018-09-01T00:56:08.460Z,99670.80
2018-09-01T00:56:39.629Z,99674.48
2018-09-01T00:57:10.804Z,99672.99
2018-09-01T00:57:41.979Z,99668.55
2018-09-01T00:58:13.104Z,99675.52
2018-09-01T00:58:44.320Z,99670.27
2018-09-01T00:59:15.485Z,99673.64
2018-09-01T00:59:46.603Z,99677.82
2018-09-01T01:00:17.777Z,99672.42
2018-09-01T01:00:48.968Z,99673.12
2018-09-01T01:01:20.145Z,99671.58
2018-09-01T01:01:51.326Z,99672.63
2018-09-01T01:02:22.563Z,99676.04
2018-09-01T01:02:53.752Z,99671.99
2018-09-01T01:03:24.940Z,99672.37
2018-09-01T01:03:56.064Z,99674.06
2018-09-01T01:04:27.232Z,99675.39
2018-09-01T01:04:58.424Z,99676.05
2018-09-01T01:05:29.594Z,99672.15
2018-09-01T01:06:00.784Z,99676.03
2018-09-01T01:06:32.009Z,99678.01
2018-09-01T01:07:03.146Z,99674.24
2018-09-01T01:07:34.448Z,99675.73
2018-09-01T01:08:05.626Z,99681.02
2018-09-01T01:08:36.857Z,99677.16
2018-09-01T01:09:08.053Z,99674.23
2018-09-01T01:09:39.232Z,99678.94
2018-09-01T01:10:10.432Z,99674.52
2018-09-01T01:10:41.618Z,99680.19
2018-09-01T01:11:12.810Z,99679.70
2018-09-01T01:11:43.942Z,99681.02
2018-09-01T01:12:15.146Z,99678.38
2018-09-01T01:12:46.389Z,99672.25
2018-09-01T01:13:17.572Z,99674.52
2018-09-01T01:13:49.528Z,99675.34
2018-09-01T01:14:20.774Z,99676.22
2018-09-01T01:14:51.896Z,99681.96
2018-09-01T01:15:23.008Z,99677.89
2018-09-01T01:15:54.242Z,99681.41
2018-09-01T01:16:25.363Z,99675.25
2018-09-01T01:16:56.539Z,99674.31
2018-09-01T01:17:27.652Z,99674.80
2018-09-01T01:17:58.816Z,99678.77
2018-09-01T01:18:30.037Z,99677.06
2018-09-01T01:19:01.140Z,99678.28
2018-09-01T01:19:32.317Z,99677.44
2018-09-01T01:20:03.445Z,99678.94
2018-09-01T01:20:34.624Z,99677.71
2018-09-01T01:21:05.808Z,99681.39
2018-09-01T01:21:36.945Z,99681.95
2018-09-01T01:22:08.218Z,99680.34
2018-09-01T01:22:39.384Z,99676.37
2018-09-01T01:23:10.528Z,99682.21
2018-09-01T01:23:41.708Z,99684.09
2018-09-01T01:24:12.917Z,99674.55
2018-09-01T01:24:44.112Z,99677.67
2018-09-01T01:25:15.280Z,99681.80
2018-09-01T01:25:46.504Z,99680.58
2018-09-01T01:26:17.639Z,99681.13
2018-09-01T01:26:48.748Z,99678.20
2018-09-01T01:27:19.985Z,99680.11
2018-09-01T01:27:51.175Z,99686.71
2018-09-01T01:28:22.364Z,99682.75
2018-09-01T01:28:53.481Z,99681.42
2018-09-01T01:29:24.636Z,99689.26
2018-09-01T01:29:55.764Z,99686.62
2018-09-01T01:30:26.876Z,99680.95
2018-09-01T01:30:58.020Z,99694.16
2018-09-01T01:31:29.135Z,99687.94
2018-09-01T01:32:00.260Z,99690.38
2018-09-01T01:32:31.381Z,99692.58
2018-09-01T01:33:02.499Z,99694.34
2018-09-01T01:33:33.688Z,99688.32
2018-09-01T01:34:04.812Z,99692.45
2018-09-01T01:34:36.030Z,99688.97
2018-09-01T01:35:07.216Z,99694.81
2018-09-01T01:35:38.397Z,99694.91
2018-09-01T01:36:09.560Z,99692.36
2018-09-01T01:36:40.680Z,99694.61
2018-09-01T01:37:11.917Z,99697.71
2018-09-01T01:37:43.033Z,99698.30
2018-09-01T01:38:14.205Z,99694.48
2018-09-01T01:38:45.423Z,99690.63
2018-09-01T01:39:16.568Z,99690.23
2018-09-01T01:39:47.687Z,99688.08
2018-09-01T01:40:18.860Z,99694.30
2018-09-01T01:40:49.982Z,99692.59
2018-09-01T01:41:21.143Z,99687.41
2018-09-01T01:41:52.268Z,99694.01
2018-09-01T01:42:23.393Z,99697.48
2018-09-01T01:42:54.544Z,99692.20
2018-09-01T01:43:25.667Z,99693.43
2018-09-01T01:43:56.796Z,99689.11
2018-09-01T01:44:28.006Z,99687.11
2018-09-01T01:44:59.171Z,99692.20
2018-09-01T01:45:30.368Z,99692.05
2018-09-01T01:46:01.534Z,99687.50
2018-09-01T01:46:32.661Z,99691.30
2018-09-01T01:47:03.885Z,99692.07
2018-09-01T01:47:35.018Z,99694.13
2018-09-01T01:48:06.136Z,99694.52
2018-09-01T01:48:37.361Z,99692.71
2018-09-01T01:49:08.545Z,99690.55
2018-09-01T01:49:39.859Z,99694.32
2018-09-01T01:50:11.018Z,99693.88
2018-09-01T01:50:42.192Z,99692.94
2018-09-01T01:51:13.370Z,99690.19
2018-09-01T01:51:44.613Z,99690.87
2018-09-01T01:52:15.830Z,99697.93
2018-09-01T01:52:47.017Z,99699.09
2018-09-01T01:53:18.131Z,99692.86
2018-09-01T01:53:49.264Z,99693.59
2018-09-01T01:54:20.462Z,99695.31
2018-09-01T01:54:51.673Z,99692.50
2018-09-01T01:55:22.908Z,99691.62
2018-09-01T01:55:54.092Z,99695.53
2018-09-01T01:56:25.250Z,99690.14
2018-09-01T01:56:56.435Z,99694.81
2018-09-01T01:57:27.630Z,99689.33
2018-09-01T01:57:58.867Z,99683.77
2018-09-01T01:58:30.044Z,99687.25
2018-09-01T01:59:01.233Z,99690.77
2018-09-01T01:59:32.411Z,99692.83
2018-09-01T02:00:03.594Z,99690.56
2018-09-01T02:00:34.767Z,99688.20
2018-09-01T02:01:06.005Z,99690.84
2018-09-01T02:01:37.132Z,99689.53
2018-09-01T02:02:08.352Z,99688.59
2018-09-01T02:02:39.548Z,99686.33
2018-09-01T02:03:10.718Z,99689.36
2018-09-01T02:03:41.839Z,99682.16
2018-09-01T02:04:13.008Z,99684.80
2018-09-01T02:04:44.129Z,99685.57
2018-09-01T02:05:15.268Z,99685.02
2018-09-01T02:05:46.531Z,99683.50
2018-09-01T02:06:17.639Z,99690.01
2018-09-01T02:06:48.757Z,99688.62
2018-09-01T02:07:19.941Z,99680.20
2018-09-01T02:07:51.060Z,99685.97
2018-09-01T02:08:22.237Z,99683.22
2018-09-01T02:08:53.417Z,99685.88
2018-09-01T02:09:24.598Z,99688.41
2018-09-01T02:09:55.724Z,99686.53
2018-09-01T02:10:26.836Z,99682.36
2018-09-01T02:10:58.118Z,99683.52
2018-09-01T02:11:29.248Z,99684.91
2018-09-01T02:12:00.481Z,99687.10
2018-09-01T02:12:31.672Z,99688.87
2018-09-01T02:13:02.870Z,99688.52
2018-09-01T02:13:33.991Z,99681.14
2018-09-01T02:14:05.107Z,99685.11
2018-09-01T02:14:36.272Z,99689.56
2018-09-01T02:15:07.391Z,99686.25
2018-09-01T02:15:38.580Z,99683.61
2018-09-01T02:16:09.743Z,99687.30
2018-09-01T02:16:40.980Z,99687.84
2018-09-01T02:17:12.164Z,99685.76
2018-09-01T02:17:43.311Z,99680.85
2018-09-01T02:18:14.537Z,99678.31
2018-09-01T02:18:45.775Z,99681.89
2018-09-01T02:19:16.969Z,99681.61
2018-09-01T02:19:48.146Z,99684.64
2018-09-01T02:20:19.277Z,99680.19
2018-09-01T02:20:50.450Z,99678.86
2018-09-01T02:21:21.586Z,99681.50
2018-09-01T02:21:52.760Z,99682.09
2018-09-01T02:22:23.945Z,99682.55
2018-09-01T02:22:55.112Z,99682.92
2018-09-01T02:23:26.259Z,99684.64
2018-09-01T02:23:57.377Z,99678.76
2018-09-01T02:24:28.592Z,99683.05
2018-09-01T02:24:59.703Z,99683.33
2018-09-01T02:25:30.819Z,99685.00
2018-09-01T02:26:02.045Z,99683.67
2018-09-01T02:26:33.216Z,99682.18
2018-09-01T02:27:04.343Z,99688.24
2018-09-01T02:27:35.479Z,99686.33
2018-09-01T02:28:06.657Z,99685.95
2018-09-01T02:28:37.874Z,99684.73
2018-09-01T02:29:09.084Z,99684.93
2018-09-01T02:29:40.317Z,99685.88
2018-09-01T02:30:11.443Z,99688.90
2018-09-01T02:30:42.567Z,99684.06
2018-09-01T02:31:13.728Z,99688.41
2018-09-01T02:31:44.851Z,99686.16
2018-09-01T02:32:15.970Z,99680.86
2018-09-01T02:32:47.090Z,99683.50
2018-09-01T02:33:18.322Z,99683.50
2018-09-01T02:33:49.532Z,99683.78
2018-09-01T02:34:20.720Z,99682.95
2018-09-01T02:34:51.895Z,99682.08
2018-09-01T02:35:23.073Z,99688.80
2018-09-01T02:35:54.200Z,99686.32
2018-09-01T02:36:25.388Z,99685.10
2018-09-01T02:36:56.613Z,99682.27
2018-09-01T02:37:27.755Z,99686.80
2018-09-01T02:37:58.875Z,99684.35
2018-09-01T02:38:30.052Z,99683.13
2018-09-01T02:39:01.301Z,99685.01
2018-09-01T02:39:32.428Z,99688.20
2018-09-01T02:40:03.599Z,99681.70
2018-09-01T02:40:34.728Z,99686.14
2018-09-01T02:41:05.843Z,99687.47
2018-09-01T02:41:36.964Z,99688.02
2018-09-01T02:42:08.139Z,99685.55
2018-09-01T02:42:39.328Z,99686.58
2018-09-01T02:43:10.513Z,99688.00
2018-09-01T02:43:41.694Z,99686.78
2018-09-01T02:44:12.884Z,99685.45
2018-09-01T02:44:44.005Z,99681.49
2018-09-01T02:45:15.161Z,99684.59
2018-09-01T02:45:46.280Z,99684.14
2018-09-01T02:46:17.473Z,99679.69
2018-09-01T02:46:48.645Z,99691.42
2018-09-01T02:47:19.780Z,99688.39
2018-09-01T02:47:50.958Z,99685.74
2018-09-01T02:48:22.052Z,99686.13
2018-09-01T02:48:53.181Z,99682.72
2018-09-01T02:49:24.364Z,99691.97
2018-09-01T02:49:55.484Z,99690.27
2018-09-01T02:50:26.688Z,99690.36
2018-09-01T02:50:57.808Z,99689.04
2018-09-01T02:51:28.935Z,99688.20
2018-09-01T02:52:00.058Z,99689.52
2018-09-01T02:52:31.217Z,99689.97
2018-09-01T02:53:02.327Z,99692.62
2018-09-01T02:53:33.447Z,99689.20
2018-09-01T02:54:04.616Z,99688.59
2018-09-01T02:54:35.807Z,99690.02
2018-09-01T02:55:06.928Z,99693.15
2018-09-01T02:55:38.083Z,99690.51
2018-09-01T02:56:09.325Z,99692.66
2018-09-01T02:56:40.627Z,99689.19
2018-09-01T02:57:11.800Z,99691.83
2018-09-01T02:57:42.964Z,99688.80
2018-09-01T02:58:14.071Z,99693.98
2018-09-01T02:58:45.307Z,99693.53
2018-09-01T02:59:16.553Z,99695.70
2018-09-01T02:59:47.752Z,99696.53
2018-09-01T03:00:18.863Z,99691.62
2018-09-01T03:00:50.029Z,99695.53
2018-09-01T03:01:21.160Z,99698.17
2018-09-01T03:01:52.315Z,99691.56
2018-09-01T03:02:23.479Z,99697.20
2018-09-01T03:02:54.595Z,99696.53
2018-09-01T03:03:25.718Z,99693.88
2018-09-01T03:03:56.965Z,99696.05
2018-09-01T03:04:28.097Z,99695.67
2018-09-01T03:04:59.343Z,99693.22
2018-09-01T03:05:30.532Z,99698.51
2018-09-01T03:06:01.933Z,99694.93
2018-09-01T03:06:33.107Z,99697.19
2018-09-01T03:07:04.348Z,99698.02
2018-09-01T03:07:35.504Z,99693.96
2018-09-01T03:08:06.680Z,99692.29
2018-09-01T03:08:37.921Z,99693.22
2018-09-01T03:09:09.104Z,99690.01
2018-09-01T03:09:40.234Z,99691.88
2018-09-01T03:10:11.475Z,99693.58
2018-09-01T03:10:42.749Z,99696.39
2018-09-01T03:11:13.871Z,99696.59
2018-09-01T03:11:45.052Z,99697.72
2018-09-01T03:12:16.250Z,99696.00
2018-09-01T03:12:47.369Z,99695.91
2018-09-01T03:13:18.543Z,99699.48
2018-09-01T03:13:49.670Z,99699.48
2018-09-01T03:14:20.904Z,99703.00
2018-09-01T03:14:52.031Z,99699.03
2018-09-01T03:15:23.149Z,99697.33
2018-09-01T03:15:54.325Z,99702.23
2018-09-01T03:16:25.468Z,99700.23
2018-09-01T03:16:56.693Z,99697.78
2018-09-01T03:17:27.868Z,99696.72
2018-09-01T03:17:59.110Z,99703.33
2018-09-01T03:18:30.350Z,99700.39
2018-09-01T03:19:01.533Z,99699.16
2018-09-01T03:19:32.665Z,99699.71
2018-09-01T03:20:03.779Z,99698.77
2018-09-01T03:20:34.956Z,99699.61
2018-09-01T03:21:06.154Z,99703.13
2018-09-01T03:21:37.277Z,99702.25
2018-09-01T03:22:08.419Z,99700.09
2018-09-01T03:22:39.584Z,99704.22
2018-09-01T03:23:10.786Z,99699.87
2018-09-01T03:23:42.005Z,99703.48
2018-09-01T03:24:13.188Z,99706.13
2018-09-01T03:24:44.385Z,99701.28
2018-09-01T03:25:15.503Z,99708.08
2018-09-01T03:25:46.608Z,99704.28
2018-09-01T03:26:17.717Z,99698.55
2018-09-01T03:26:48.902Z,99706.92
2018-09-01T03:27:20.185Z,99702.76
2018-09-01T03:27:51.398Z,99704.81
2018-09-01T03:28:22.618Z,99706.39
2018-09-01T03:28:53.793Z,99705.80
2018-09-01T03:29:25.009Z,99703.99
2018-09-01T03:29:56.144Z,99704.28
2018-09-01T03:30:27.275Z,99711.37
2018-09-01T03:30:58.460Z,99704.87
2018-09-01T03:31:29.597Z,99707.89
2018-09-01T03:32:00.725Z,99710.53
2018-09-01T03:32:31.880Z,99709.21
2018-09-01T03:33:03.057Z,99705.70
2018-09-01T03:33:34.300Z,99707.51
2018-09-01T03:34:05.471Z,99711.86
2018-09-01T03:34:36.605Z,99710.89
2018-09-01T03:35:07.782Z,99707.22
2018-09-01T03:35:38.966Z,99711.57
2018-09-01T03:36:10.184Z,99710.25
2018-09-01T03:36:41.424Z,99705.27
2018-09-01T03:37:12.611Z,99706.04
2018-09-01T03:37:43.772Z,99712.09
2018-09-01T03:38:14.909Z,99713.42
2018-09-01T03:38:46.097Z,99713.77
2018-09-01T03:39:17.309Z,99712.09
2018-09-01T03:39:48.484Z,99711.13
2018-09-01T03:40:19.592Z,99712.09
2018-09-01T03:40:50.825Z,99714.55
2018-09-01T03:41:22.006Z,99716.35
2018-09-01T03:41:53.189Z,99712.00
2018-09-01T03:42:24.376Z,99711.91
2018-09-01T03:42:55.538Z,99714.64
2018-09-01T03:43:26.656Z,99712.00
2018-09-01T03:43:57.779Z,99715.48
2018-09-01T03:44:29.039Z,99720.77
2018-09-01T03:45:00.144Z,99712.45
2018-09-01T03:45:31.256Z,99717.38
2018-09-01T03:46:02.491Z,99719.63
2018-09-01T03:46:33.629Z,99724.91
2018-09-01T03:47:04.844Z,99721.50
2018-09-01T03:47:36.078Z,99727.66
2018-09-01T03:48:07.245Z,99722.82
2018-09-01T03:48:38.424Z,99732.99
2018-09-01T03:49:09.548Z,99725.55
2018-09-01T03:49:40.764Z,99726.03
2018-09-01T03:50:11.911Z,99730.00
2018-09-01T03:50:43.019Z,99725.65
2018-09-01T03:51:14.197Z,99724.39
2018-09-01T03:51:45.379Z,99725.41
2018-09-01T03:52:16.613Z,99724.67
2018-09-01T03:52:47.851Z,99729.17
2018-09-01T03:53:19.059Z,99729.72
2018-09-01T03:53:50.545Z,99725.40
2018-09-01T03:54:21.716Z,99727.75
2018-09-01T03:54:52.908Z,99730.39
2018-09-01T03:55:24.212Z,99731.22
2018-09-01T03:55:55.397Z,99732.55
2018-09-01T03:56:26.562Z,99731.22
2018-09-01T03:56:57.699Z,99734.25
2018-09-01T03:57:28.948Z,99728.97
2018-09-01T03:58:00.148Z,99730.50
2018-09-01T03:58:31.331Z,99730.50
2018-09-01T03:59:02.497Z,99735.23
2018-09-01T03:59:33.707Z,99733.34
2018-09-01T04:00:04.950Z,99730.70
2018-09-01T04:00:36.184Z,99730.79
2018-09-01T04:01:07.421Z,99737.00
2018-09-01T04:01:38.600Z,99734.45
2018-09-01T04:02:09.729Z,99736.70
2018-09-01T04:02:40.852Z,99738.33
2018-09-01T04:03:11.970Z,99736.07
2018-09-01T04:03:43.089Z,99735.98
2018-09-01T04:04:14.195Z,99738.62
2018-09-01T04:04:45.445Z,99734.30
2018-09-01T04:05:16.683Z,99734.66
2018-09-01T04:05:47.905Z,99744.38
2018-09-01T04:06:19.088Z,99747.31
2018-09-01T04:06:50.200Z,99740.72
2018-09-01T04:07:21.376Z,99744.52
2018-09-01T04:07:52.557Z,99741.60
2018-09-01T04:08:23.827Z,99740.41
2018-09-01T04:08:55.009Z,99745.36
2018-09-01T04:09:26.180Z,99742.08
2018-09-01T04:09:57.300Z,99738.80
2018-09-01T04:10:28.459Z,99742.95
2018-09-01T04:10:59.641Z,99740.22
2018-09-01T04:11:30.817Z,99747.11
2018-09-01T04:12:01.940Z,99745.25
2018-09-01T04:12:33.100Z,99747.31
2018-09-01T04:13:04.339Z,99744.51
2018-09-01T04:13:35.501Z,99746.80
2018-09-01T04:14:06.634Z,99750.80
2018-09-01T04:14:37.797Z,99744.67
2018-09-01T04:15:08.997Z,99748.77
2018-09-01T04:15:40.174Z,99744.98
2018-09-01T04:16:11.352Z,99742.25
2018-09-01T04:16:42.528Z,99748.31
2018-09-01T04:17:13.692Z,99745.60
2018-09-01T04:17:44.868Z,99750.89
2018-09-01T04:18:16.073Z,99743.86
2018-09-01T04:18:47.248Z,99745.18
2018-09-01T04:19:18.434Z,99748.25
2018-09-01T04:19:49.600Z,99751.46
2018-09-01T04:20:20.809Z,99748.45
2018-09-01T04:20:51.933Z,99745.45
2018-09-01T04:21:23.050Z,99747.18
2018-09-01T04:21:54.216Z,99745.49
2018-09-01T04:22:25.375Z,99747.94
2018-09-01T04:22:56.578Z,99747.38
2018-09-01T04:23:27.764Z,99747.18
2018-09-01T04:23:58.941Z,99746.08
2018-09-01T04:24:30.152Z,99745.61
2018-09-01T04:25:01.269Z,99746.73
2018-09-01T04:25:32.380Z,99739.92
2018-09-01T04:26:03.556Z,99744.17
2018-09-01T04:26:34.676Z,99746.38
2018-09-01T04:27:05.910Z,99735.89
2018-09-01T04:27:37.060Z,99736.72
2018-09-01T04:28:08.229Z,99744.45
2018-09-01T04:28:39.413Z,99740.19
2018-09-01T04:29:10.589Z,99743.18
2018-09-01T04:29:41.772Z,99743.93
2018-09-01T04:30:12.981Z,99739.19
2018-09-01T04:30:44.122Z,99744.58
2018-09-01T04:31:15.310Z,99744.23
2018-09-01T04:31:46.484Z,99743.09
2018-09-01T04:32:17.662Z,99742.38
2018-09-01T04:32:48.791Z,99745.28
2018-09-01T04:33:19.919Z,99742.84
2018-09-01T04:33:51.069Z,99740.41
2018-09-01T04:34:22.296Z,99747.77
2018-09-01T04:34:53.477Z,99744.70
2018-09-01T04:35:24.725Z,99744.29
2018-09-01T04:35:55.917Z,99740.84
2018-09-01T04:36:27.035Z,99740.19
2018-09-01T04:36:58.257Z,99742.52
2018-09-01T04:37:29.375Z,99742.25
2018-09-01T04:38:00.497Z,99742.23
2018-09-01T04:38:31.608Z,99748.95
2018-09-01T04:39:02.818Z,99750.23
2018-09-01T04:39:33.931Z,99735.94
2018-09-01T04:40:05.047Z,99742.41
2018-09-01T04:40:36.200Z,99735.94
2018-09-01T04:41:07.376Z,99738.73
2018-09-01T04:41:38.495Z,99738.53
2018-09-01T04:42:09.662Z,99736.97
2018-09-01T04:42:40.827Z,99739.42
2018-09-01T04:43:12.020Z,99742.63
2018-09-01T04:43:43.132Z,99738.45
2018-09-01T04:44:14.260Z,99741.01
2018-09-01T04:44:45.415Z,99741.80
2018-09-01T04:45:16.520Z,99737.44
2018-09-01T04:45:47.683Z,99733.08
2018-09-01T04:46:18.798Z,99737.14
2018-09-01T04:46:50.059Z,99734.34
2018-09-01T04:47:21.172Z,99732.33
2018-09-01T04:47:52.341Z,99736.38
2018-09-01T04:48:23.467Z,99736.61
2018-09-01T04:48:54.679Z,99742.97
2018-09-01T04:49:25.807Z,99734.92
2018-09-01T04:49:56.912Z,99730.61
2018-09-01T04:50:28.091Z,99733.16
2018-09-01T04:50:59.206Z,99734.55
2018-09-01T04:51:30.379Z,99734.36
2018-09-01T04:52:01.550Z,99731.17
2018-09-01T04:52:32.733Z,99728.07
2018-09-01T04:53:03.847Z,99732.19
2018-09-01T04:53:35.010Z,99732.11
2018-09-01T04:54:06.192Z,99726.33
2018-09-01T04:54:37.412Z,99732.91
2018-09-01T04:55:08.592Z,99729.91
2018-09-01T04:55:39.760Z,99734.69
2018-09-01T04:56:10.929Z,99732.44
2018-09-01T04:56:42.035Z,99736.45
2018-09-01T04:57:13.163Z,99733.23
2018-09-01T04:57:44.287Z,99734.81
2018-09-01T04:58:15.427Z,99733.11
2018-09-01T04:58:46.535Z,99732.55
2018-09-01T04:59:17.655Z,99732.31
2018-09-01T04:59:48.808Z,99729.88
2018-09-01T05:00:19.920Z,99726.52
2018-09-01T05:00:51.124Z,99726.12
2018-09-01T05:01:22.299Z,99732.80
2018-09-01T05:01:53.449Z,99728.20
2018-09-01T05:02:24.585Z,99725.46
2018-09-01T05:02:55.702Z,99726.55
2018-09-01T05:03:26.903Z,99723.02
2018-09-01T05:03:58.064Z,99730.43
2018-09-01T05:04:29.233Z,99725.71
2018-09-01T05:05:00.443Z,99728.95
2018-09-01T05:05:31.719Z,99724.83
2018-09-01T05:06:02.949Z,99728.36
2018-09-01T05:06:34.160Z,99731.00
2018-09-01T05:07:05.342Z,99732.94
2018-09-01T05:07:36.517Z,99730.41
2018-09-01T05:08:07.746Z,99729.43
2018-09-01T05:08:38.920Z,99730.77
2018-09-01T05:09:10.044Z,99727.98
2018-09-01T05:09:41.229Z,99726.98
2018-09-01T05:10:12.348Z,99727.23
2018-09-01T05:10:43.515Z,99727.96
2018-09-01T05:11:14.685Z,99723.69
2018-09-01T05:11:45.907Z,99726.19
2018-09-01T05:12:17.115Z,99724.02
2018-09-01T05:12:48.244Z,99727.25
2018-09-01T05:13:19.415Z,99725.91
2018-09-01T05:13:50.538Z,99720.91
2018-09-01T05:14:21.767Z,99722.59
2018-09-01T05:14:52.889Z,99726.33
2018-09-01T05:15:24.015Z,99723.14
2018-09-01T05:15:55.714Z,99727.03
2018-09-01T05:16:26.819Z,99725.05
2018-09-01T05:16:57.997Z,99727.42
2018-09-01T05:17:29.161Z,99723.28
2018-09-01T05:18:00.332Z,99723.94
2018-09-01T05:18:31.460Z,99725.63
2018-09-01T05:19:02.632Z,99731.05
2018-09-01T05:19:33.792Z,99726.44
2018-09-01T05:20:04.945Z,99727.64
2018-09-01T05:20:36.116Z,99730.48
2018-09-01T05:21:07.228Z,99723.34
2018-09-01T05:21:38.443Z,99725.73
2018-09-01T05:22:09.563Z,99729.73
2018-09-01T05:22:40.720Z,99725.03
2018-09-01T05:23:11.897Z,99689.95
2018-09-01T05:23:43.028Z,99729.49
2018-09-01T05:24:14.205Z,99723.72
2018-09-01T05:24:45.326Z,99719.84
2018-09-01T05:25:16.436Z,99724.76
2018-09-01T05:25:47.557Z,99723.71
2018-09-01T05:26:18.746Z,99726.52
2018-09-01T05:26:49.919Z,99726.25
2018-09-01T05:27:21.110Z,99723.56
2018-09-01T05:27:52.351Z,99720.98
2018-09-01T05:28:23.464Z,99721.91
2018-09-01T05:28:54.634Z,99723.27
2018-09-01T05:29:25.804Z,99722.30
2018-09-01T05:29:56.997Z,99725.12
2018-09-01T05:30:28.185Z,99720.73
2018-09-01T05:30:59.348Z,99721.09
2018-09-01T05:31:30.574Z,99724.91
2018-09-01T05:32:01.707Z,99727.72
2018-09-01T05:32:32.885Z,99722.15
2018-09-01T05:33:04.152Z,99722.59
2018-09-01T05:33:35.280Z,99719.65
2018-09-01T05:34:06.509Z,99720.89
2018-09-01T05:34:37.729Z,99724.67
2018-09-01T05:35:08.897Z,99718.32
2018-09-01T05:35:40.085Z,99724.72
2018-09-01T05:36:11.270Z,99718.69
2018-09-01T05:36:42.472Z,99719.66
2018-09-01T05:37:13.541Z,99720.98
2018-09-01T05:37:44.720Z,99719.95
2018-09-01T05:38:15.844Z,99721.66
2018-09-01T05:38:46.959Z,99725.16
2018-09-01T05:39:18.128Z,99717.52
2018-09-01T05:39:49.347Z,99722.42
2018-09-01T05:40:20.456Z,99724.85
2018-09-01T05:40:51.696Z,99721.91
2018-09-01T05:41:22.892Z,99726.87
2018-09-01T05:41:54.096Z,99721.63
2018-09-01T05:42:25.284Z,99726.59
2018-09-01T05:42:56.404Z,99716.98
2018-09-01T05:43:27.629Z,99729.70
2018-09-01T05:43:58.818Z,99723.34
2018-09-01T05:44:30.057Z,99725.36
2018-09-01T05:45:01.216Z,99724.48
2018-09-01T05:45:32.388Z,99722.71
2018-09-01T05:46:03.513Z,99726.45
2018-09-01T05:46:34.691Z,99722.58
2018-09-01T05:47:05.812Z,99719.52
2018-09-01T05:47:36.989Z,99721.94
2018-09-01T05:48:08.114Z,99721.42
2018-09-01T05:48:39.241Z,99719.98
2018-09-01T05:49:10.436Z,99724.08
2018-09-01T05:49:41.650Z,99720.80
2018-09-01T05:50:12.771Z,99725.64
2018-09-01T05:50:44.057Z,99726.58
2018-09-01T05:51:15.167Z,99727.27
2018-09-01T05:51:46.280Z,99724.50
2018-09-01T05:52:17.401Z,99725.19
2018-09-01T05:52:48.524Z,99726.25
2018-09-01T05:53:19.753Z,99723.27
2018-09-01T05:53:50.994Z,99726.09
2018-09-01T05:54:22.176Z,99728.08
2018-09-01T05:54:53.347Z,99717.59
2018-09-01T05:55:24.555Z,99725.73
2018-09-01T05:55:55.791Z,99723.66
2018-09-01T05:56:26.985Z,99720.29
2018-09-01T05:56:58.174Z,99722.36
2018-09-01T05:57:29.312Z,99719.66
2018-09-01T05:58:00.437Z,99726.69
2018-09-01T05:58:31.564Z,99726.56
2018-09-01T05:59:02.745Z,99732.30
2018-09-01T05:59:33.897Z,99724.66
2018-09-01T06:00:05.105Z,99720.52
2018-09-01T06:00:36.337Z,99725.13
2018-09-01T06:01:07.510Z,99722.59
2018-09-01T06:01:38.631Z,99726.59
2018-09-01T06:02:09.748Z,99724.80
2018-09-01T06:02:40.862Z,99727.59
2018-09-01T06:03:11.991Z,99734.03
2018-09-01T06:03:43.161Z,99728.45
2018-09-01T06:04:14.389Z,99724.22
2018-09-01T06:04:45.570Z,99724.92
2018-09-01T06:05:16.741Z,99728.81
2018-09-01T06:05:47.904Z,99731.59